Sds Red — ICMZ — position and weather

sailwx.info

Track history (hours):
 
Tides and Currents Weather Stations Pressure Air Temp Water Temp Dewpoint Dewpoint Depression Visibility Wind Speed Wind Dir Waves Ship Positions

Sds Red

Last reported at 2018-Jun-16 08:32 UTC. Time now 2018-Jun-22 15:24 UTC.
Position N 38°00' E 004°26'.

Length 108 m; draft 6.6 m.

Type: Cargo ship. MMSI: 247286900.

Date/timePositionNaut miles runAvg speedWind from/ knotsBaromVisibWave heightAir tempDewpointWater temp
2018-Jun-16 08:32N 38°00' E 004°26'010.3
2018-Jun-16 08:30N 38°00' E 004°26'510.6
2018-Jun-16 08:00N 38°03' E 004°20'4811.2
2018-Jun-16 03:44N 38°25' E 003°26'210.7
2018-Jun-16 03:30N 38°26' E 003°23'910.9
2018-Jun-16 02:39N 38°30' E 003°13'311.2
2018-Jun-16 02:21N 38°32' E 003°09'911.1
2018-Jun-16 01:33N 38°36' E 002°59'011.2
2018-Jun-16 01:30N 38°36' E 002°58'611.1
2018-Jun-16 00:57N 38°39' E 002°51'611.0
2018-Jun-16 00:22N 38°42' E 002°44'410.7
2018-Jun-15 23:58N 38°44' E 002°39'510.6
2018-Jun-15 23:30N 38°46' E 002°33'610.8
2018-Jun-15 22:56N 38°49' E 002°26'511.1
2018-Jun-15 22:30N 38°51' E 002°21'1011.2
2018-Jun-15 21:36N 38°55' E 002°09'211.2
2018-Jun-15 21:27N 38°56' E 002°07'1111.1
2018-Jun-15 20:26N 39°01' E 001°54'511.0
2018-Jun-15 19:56N 39°04' E 001°48'1410.8
2018-Jun-15 18:37N 39°10' E 001°32'111.4
2018-Jun-15 18:30N 39°11' E 001°30'611.4
2018-Jun-15 18:01N 39°12' E 001°23'611.3
2018-Jun-15 17:30N 39°14' E 001°16'611.0
2018-Jun-15 16:57N 39°16' E 001°09'510.8
2018-Jun-15 16:31N 39°18' E 001°03'510.5
2018-Jun-15 16:00N 39°19' E 000°56'610.4
2018-Jun-15 15:26N 39°21' E 000°49'51 1.0
2018-Jun-13 12:38N 39°39' W 000°13'1 2.7
2018-Jun-13 12:16N 39°38' W 000°13'2 6.3
2018-Jun-13 12:00N 39°37' W 000°11'2 1.2
2018-Jun-13 10:24N 39°37' W 000°09'0 0.0
2018-Jun-13 10:00N 39°37' W 000°09'0 0.0
2018-Jun-12 23:12N 39°37' W 000°09'0 0.0
2018-Jun-12 23:00N 39°37' W 000°09'0 0.0
2018-Jun-12 21:54N 39°37' W 000°09'0 0.0
2018-Jun-12 21:00N 39°37' W 000°09'0 0.0
2018-Jun-12 08:24N 39°37' W 000°09'0 0.0
2018-Jun-12 08:00N 39°37' W 000°09'6310.6
2018-Jun-12 02:01N 39°23' E 001°11'111.2
2018-Jun-12 01:57N 39°23' E 001°12'511.0
2018-Jun-12 01:30N 39°22' E 001°18'510.7
2018-Jun-12 00:59N 39°20' E 001°25'510.8
2018-Jun-12 00:29N 39°19' E 001°32'1311.2
2018-Jun-11 23:19N 39°17' E 001°49'611.1
2018-Jun-11 22:48N 39°15' E 001°56'711.1
2018-Jun-11 22:11N 39°14' E 002°05'511.2
2018-Jun-11 21:47N 39°13' E 002°10'311.4
2018-Jun-11 21:29N 39°12' E 002°14'611.1
2018-Jun-11 20:57N 39°11' E 002°22'511.3
2018-Jun-11 20:30N 39°10' E 002°28'711.2
2018-Jun-11 19:54N 39°08' E 002°37'811.0
2018-Jun-11 19:12N 39°06' E 002°47'211.0
2018-Jun-11 19:00N 39°06' E 002°49'610.7
2018-Jun-11 18:27N 39°05' E 002°57'510.8
2018-Jun-11 18:00N 39°05' E 003°03'510.5
2018-Jun-11 17:30N 39°04' E 003°10'510.4
2018-Jun-11 17:00N 39°04' E 003°16'510.5
2018-Jun-11 16:30N 39°04' E 003°23'29711.2
2018-Jun-10 13:54N 38°43' E 009°44'612.9
2018-Jun-10 13:24N 38°42' E 009°52'13212.3
2018-Jun-10 02:39N 38°19' E 012°38'212.7
2018-Jun-10 02:29N 38°18' E 012°41'612.6
2018-Jun-10 01:59N 38°18' E 012°49'612.5
2018-Jun-10 01:30N 38°18' E 012°57'612.2
2018-Jun-10 01:00N 38°18' E 013°04'611.9
2018-Jun-10 00:30N 38°18' E 013°12'611.6
2018-Jun-10 00:01N 38°18' E 013°19'612.1
2018-Jun-09 23:31N 38°18' E 013°27'612.1
2018-Jun-09 23:00N 38°17' E 013°35'712.1
2018-Jun-09 22:28N 38°17' E 013°43'512.0
2018-Jun-09 22:00N 38°17' E 013°50'612.0
2018-Jun-09 21:31N 38°17' E 013°58'3811.8
2018-Jun-09 18:20N 38°17' E 014°46'411.9
2018-Jun-09 17:59N 38°18' E 014°51'611.7
2018-Jun-09 17:30N 38°18' E 014°58'611.9
2018-Jun-09 17:00N 38°18' E 015°06'611.4
2018-Jun-09 16:30N 38°18' E 015°13'611.2
2018-Jun-09 16:00N 38°19' E 015°20'611.2
2018-Jun-09 15:30N 38°20' E 015°27'10 9.7
2018-Jun-09 14:30N 38°18' E 015°39'3 6.4
2018-Jun-09 13:58N 38°15' E 015°39'510.9
2018-Jun-09 13:29N 38°10' E 015°36'510.9
2018-Jun-09 13:00N 38°04' E 015°36'610.5
2018-Jun-09 12:28N 37°59' E 015°37'510.5
2018-Jun-09 12:00N 37°55' E 015°41'711.1
2018-Jun-09 11:25N 37°53' E 015°48'  
2018-Jun-06 23:17N 43°57' E 013°18'312.5
2018-Jun-06 23:01N 43°59' E 013°14'1512.2
2018-Jun-06 21:45N 44°07' E 012°56'411.7
2018-Jun-06 21:25N 44°10' E 012°52'2211.6
2018-Jun-06 19:33N 44°27' E 012°33'411.4
2018-Jun-06 19:12N 44°29' E 012°29'212.1
2018-Jun-06 19:01N 44°30' E 012°26'  
Track history (hours):
 
Tides and Currents Weather Stations Pressure Air Temp Water Temp Dewpoint Dewpoint Depression Visibility Wind Speed Wind Dir Waves Ship Positions

Sds Red

Last reported at 2018-Jun-16 08:32 UTC. Time now 2018-Jun-22 15:24 UTC.
Position N 38°00' E 004°26'.

Length 108 m; draft 6.6 m.

Type: Cargo ship. MMSI: 247286900.

Date/timePositionNaut miles runAvg speedWind from/ knotsBaromVisibWave heightAir tempDewpointWater temp
2018-Jun-16 08:32N 38°00' E 004°26'010.3
2018-Jun-16 08:30N 38°00' E 004°26'510.6
2018-Jun-16 08:00N 38°03' E 004°20'4811.2
2018-Jun-16 03:44N 38°25' E 003°26'210.7
2018-Jun-16 03:30N 38°26' E 003°23'910.9
2018-Jun-16 02:39N 38°30' E 003°13'311.2
2018-Jun-16 02:21N 38°32' E 003°09'911.1
2018-Jun-16 01:33N 38°36' E 002°59'011.2
2018-Jun-16 01:30N 38°36' E 002°58'611.1
2018-Jun-16 00:57N 38°39' E 002°51'611.0
2018-Jun-16 00:22N 38°42' E 002°44'410.7
2018-Jun-15 23:58N 38°44' E 002°39'510.6
2018-Jun-15 23:30N 38°46' E 002°33'610.8
2018-Jun-15 22:56N 38°49' E 002°26'511.1
2018-Jun-15 22:30N 38°51' E 002°21'1011.2
2018-Jun-15 21:36N 38°55' E 002°09'211.2
2018-Jun-15 21:27N 38°56' E 002°07'1111.1
2018-Jun-15 20:26N 39°01' E 001°54'511.0
2018-Jun-15 19:56N 39°04' E 001°48'1410.8
2018-Jun-15 18:37N 39°10' E 001°32'111.4
2018-Jun-15 18:30N 39°11' E 001°30'611.4
2018-Jun-15 18:01N 39°12' E 001°23'611.3
2018-Jun-15 17:30N 39°14' E 001°16'611.0
2018-Jun-15 16:57N 39°16' E 001°09'510.8
2018-Jun-15 16:31N 39°18' E 001°03'510.5
2018-Jun-15 16:00N 39°19' E 000°56'610.4
2018-Jun-15 15:26N 39°21' E 000°49'51 1.0
2018-Jun-13 12:38N 39°39' W 000°13'1 2.7
2018-Jun-13 12:16N 39°38' W 000°13'2 6.3
2018-Jun-13 12:00N 39°37' W 000°11'2 1.2
2018-Jun-13 10:24N 39°37' W 000°09'0 0.0
2018-Jun-13 10:00N 39°37' W 000°09'0 0.0
2018-Jun-12 23:12N 39°37' W 000°09'0 0.0
2018-Jun-12 23:00N 39°37' W 000°09'0 0.0
2018-Jun-12 21:54N 39°37' W 000°09'0 0.0
2018-Jun-12 21:00N 39°37' W 000°09'0 0.0
2018-Jun-12 08:24N 39°37' W 000°09'0 0.0
2018-Jun-12 08:00N 39°37' W 000°09'6310.6
2018-Jun-12 02:01N 39°23' E 001°11'111.2
2018-Jun-12 01:57N 39°23' E 001°12'511.0
2018-Jun-12 01:30N 39°22' E 001°18'510.7
2018-Jun-12 00:59N 39°20' E 001°25'510.8
2018-Jun-12 00:29N 39°19' E 001°32'1311.2
2018-Jun-11 23:19N 39°17' E 001°49'611.1
2018-Jun-11 22:48N 39°15' E 001°56'711.1
2018-Jun-11 22:11N 39°14' E 002°05'511.2
2018-Jun-11 21:47N 39°13' E 002°10'311.4
2018-Jun-11 21:29N 39°12' E 002°14'611.1
2018-Jun-11 20:57N 39°11' E 002°22'511.3
2018-Jun-11 20:30N 39°10' E 002°28'711.2
2018-Jun-11 19:54N 39°08' E 002°37'811.0
2018-Jun-11 19:12N 39°06' E 002°47'211.0
2018-Jun-11 19:00N 39°06' E 002°49'610.7
2018-Jun-11 18:27N 39°05' E 002°57'510.8
2018-Jun-11 18:00N 39°05' E 003°03'510.5
2018-Jun-11 17:30N 39°04' E 003°10'510.4
2018-Jun-11 17:00N 39°04' E 003°16'510.5
2018-Jun-11 16:30N 39°04' E 003°23'29711.2
2018-Jun-10 13:54N 38°43' E 009°44'612.9
2018-Jun-10 13:24N 38°42' E 009°52'13212.3
2018-Jun-10 02:39N 38°19' E 012°38'212.7
2018-Jun-10 02:29N 38°18' E 012°41'612.6
2018-Jun-10 01:59N 38°18' E 012°49'612.5
2018-Jun-10 01:30N 38°18' E 012°57'612.2
2018-Jun-10 01:00N 38°18' E 013°04'611.9
2018-Jun-10 00:30N 38°18' E 013°12'611.6
2018-Jun-10 00:01N 38°18' E 013°19'612.1
2018-Jun-09 23:31N 38°18' E 013°27'612.1
2018-Jun-09 23:00N 38°17' E 013°35'712.1
2018-Jun-09 22:28N 38°17' E 013°43'512.0
2018-Jun-09 22:00N 38°17' E 013°50'612.0
2018-Jun-09 21:31N 38°17' E 013°58'3811.8
2018-Jun-09 18:20N 38°17' E 014°46'411.9
2018-Jun-09 17:59N 38°18' E 014°51'611.7
2018-Jun-09 17:30N 38°18' E 014°58'611.9
2018-Jun-09 17:00N 38°18' E 015°06'611.4
2018-Jun-09 16:30N 38°18' E 015°13'611.2
2018-Jun-09 16:00N 38°19' E 015°20'611.2
2018-Jun-09 15:30N 38°20' E 015°27'10 9.7
2018-Jun-09 14:30N 38°18' E 015°39'3 6.4
2018-Jun-09 13:58N 38°15' E 015°39'510.9
2018-Jun-09 13:29N 38°10' E 015°36'510.9
2018-Jun-09 13:00N 38°04' E 015°36'610.5
2018-Jun-09 12:28N 37°59' E 015°37'510.5
2018-Jun-09 12:00N 37°55' E 015°41'711.1
2018-Jun-09 11:25N 37°53' E 015°48'  
2018-Jun-06 23:17N 43°57' E 013°18'312.5
2018-Jun-06 23:01N 43°59' E 013°14'1512.2
2018-Jun-06 21:45N 44°07' E 012°56'411.7
2018-Jun-06 21:25N 44°10' E 012°52'2211.6
2018-Jun-06 19:33N 44°27' E 012°33'411.4
2018-Jun-06 19:12N 44°29' E 012°29'212.1
2018-Jun-06 19:01N 44°30' E 012°26'  

Dump ship's entire track history